This is the latest recevied weather packets stored in our database for station/object KQ4KX. If no packets are shown the sender has not sent any weather packets the latest 10 day(s).
| Time | Temp. | Humidity | Pressure | Rain* | Wind** | Luminosity | Snow |
|---|---|---|---|---|---|---|---|
| 1777495735 | 31.67° C | 50% | 1012.2 hPa | 0 mm | - | - | - |
| 1777495405 | 31.67° C | 50% | 1012.4 hPa | 0 mm | - | - | - |
| 1777495075 | 32.22° C | 50% | 1012.4 hPa | 0 mm | - | - | - |
| 1777494746 | 32.22° C | 52% | 1012.4 hPa | 0 mm | - | - | - |
| 1777494416 | 32.22° C | 53% | 1012.5 hPa | 0 mm | - | - | - |
| 1777493786 | 31.67° C | 52% | 1012.9 hPa | 0 mm | - | - | - |
| 1777493455 | 31.67° C | 51% | 1013.1 hPa | 0 mm | - | - | - |
| 1777492796 | 32.22° C | 50% | 1013.4 hPa | 0 mm | - | - | - |
| 1777492136 | 31.67° C | 51% | 1013.6 hPa | 0 mm | - | - | - |
| 1777491235 | 31.67° C | 55% | 1013.8 hPa | 0 mm | - | - | - |
| 1777489645 | 30° C | 58% | 1014.7 hPa | 0 mm | - | - | - |
| 1777488715 | 30.56° C | 57% | 1014.8 hPa | 0 mm | - | - | - |
| 1777487785 | 30.56° C | 60% | 1015 hPa | 0 mm | - | - | - |
| 1777487455 | 31.11° C | 56% | 1015.1 hPa | 0 mm | - | - | - |
| 1777486795 | 30.56° C | 59% | 1015.4 hPa | 0 mm | - | - | - |
| 1777486495 | 30° C | 59% | 1015.3 hPa | 0 mm | - | - | - |
| 1777486165 | 30° C | 58% | 1015.4 hPa | 0 mm | - | - | - |
| 1777485865 | 30.56° C | 57% | 1015.5 hPa | 0 mm | - | - | - |
| 1777485535 | 30.56° C | 57% | 1015.4 hPa | 0 mm | - | - | - |
| 1777484875 | 31.11° C | 59% | 1015.6 hPa | 0 mm | - | - | - |
| 1777484545 | 30.56° C | 59% | 1015.9 hPa | 0 mm | - | - | - |
| 1777484245 | 30.56° C | 58% | 1016.1 hPa | 0 mm | - | - | - |
| 1777483345 | 31.11° C | 59% | 1016.3 hPa | 0 mm | - | - | - |
| 1777483015 | 31.11° C | 60% | 1016.3 hPa | 0 mm | - | - | - |
| 1777482685 | 30.56° C | 59% | 1016.3 hPa | 0 mm | - | - | - |
* Rain latest hour (hover to see other rain measurements)
** Current wind speed in m/s (hover to see current wind gust speed)